Terminal Aerodrome Forecast
Issued by NWS Quad Cities IA IL

Home | Current Version | Previous Version | Text Only | Print | Product List | Glossary On
Versions: 1 2 3 4 5 6 7 8 9 10 11 12 13 14 15 16 17 18 19 20 21 22
000
FTUS43 KDVN 042331
TAFMLI
TAF
KMLI 042331Z 0500/0524 07009KT P6SM VCTS FEW040CB BKN150
      TEMPO 0500/0502 2SM TSRA BKN030CB OVC050
     FM050200 08006KT 3SM -TSRA BKN035CB OVC050
      TEMPO 0502/0506 1SM +TSRA BKN015CB OVC025
     FM050800 10004KT 3SM SHRA OVC015
     FM051500 13008KT 5SM BR VCSH FEW020 BKN050=

USA.gov is the U.S. government's official web portal to all federal, state and local government web resources and services.